sensor_id;sensor_type;location;lat;lon;timestamp;P1;durP1;ratioP1;P2;durP2;ratioP2
32611;SDS011;19030;49.478;8.986;2023-04-24T00:00:57;5.10;;;1.80;;
32611;SDS011;19030;49.478;8.986;2023-04-24T00:02:58;2.40;;;1.70;;
32611;SDS011;19030;49.478;8.986;2023-04-24T00:04:59;1.95;;;1.60;;
32611;SDS011;19030;49.478;8.986;2023-04-24T00:07:02;4.15;;;1.85;;
32611;SDS011;19030;49.478;8.986;2023-04-24T00:09:03;3.25;;;1.75;;
32611;SDS011;19030;49.478;8.986;2023-04-24T00:11:05;4.93;;;1.88;;
32611;SDS011;19030;49.478;8.986;2023-04-24T00:13:05;5.00;;;1.90;;
32611;SDS011;19030;49.478;8.986;2023-04-24T00:15:06;5.50;;;1.92;;
32611;SDS011;19030;49.478;8.986;2023-04-24T00:17:07;2.63;;;1.70;;
32611;SDS011;19030;49.478;8.986;2023-04-24T00:19:07;5.30;;;1.77;;
32611;SDS011;19030;49.478;8.986;2023-04-24T00:21:08;4.35;;;1.92;;
32611;SDS011;19030;49.478;8.986;2023-04-24T00:23:09;4.72;;;2.03;;
32611;SDS011;19030;49.478;8.986;2023-04-24T00:25:09;3.78;;;1.70;;
32611;SDS011;19030;49.478;8.986;2023-04-24T00:27:10;3.13;;;1.80;;
32611;SDS011;19030;49.478;8.986;2023-04-24T00:29:10;4.90;;;2.10;;
32611;SDS011;19030;49.478;8.986;2023-04-24T00:31:11;3.05;;;1.70;;
32611;SDS011;19030;49.478;8.986;2023-04-24T00:33:12;3.90;;;2.00;;
32611;SDS011;19030;49.478;8.986;2023-04-24T00:35:12;3.80;;;1.90;;
32611;SDS011;19030;49.478;8.986;2023-04-24T00:37:14;3.53;;;1.77;;
32611;SDS011;19030;49.478;8.986;2023-04-24T00:39:18;5.22;;;1.65;;
32611;SDS011;19030;49.478;8.986;2023-04-24T00:41:20;4.50;;;1.60;;
32611;SDS011;19030;49.478;8.986;2023-04-24T00:43:21;4.38;;;1.88;;
32611;SDS011;19030;49.478;8.986;2023-04-24T00:45:21;3.38;;;1.80;;
32611;SDS011;19030;49.478;8.986;2023-04-24T00:47:22;3.05;;;1.80;;
32611;SDS011;19030;49.478;8.986;2023-04-24T00:49:23;3.72;;;1.95;;
32611;SDS011;19030;49.478;8.986;2023-04-24T00:51:24;5.45;;;1.95;;
32611;SDS011;19030;49.478;8.986;2023-04-24T00:53:24;4.43;;;2.38;;
32611;SDS011;19030;49.478;8.986;2023-04-24T00:55:25;4.70;;;1.67;;
32611;SDS011;19030;49.478;8.986;2023-04-24T00:57:27;7.10;;;2.00;;
32611;SDS011;19030;49.478;8.986;2023-04-24T00:59:28;4.30;;;2.33;;
32611;SDS011;19030;49.478;8.986;2023-04-24T01:01:28;3.80;;;2.05;;
32611;SDS011;19030;49.478;8.986;2023-04-24T01:03:30;4.32;;;2.00;;
32611;SDS011;19030;49.478;8.986;2023-04-24T01:05:31;3.85;;;2.00;;
32611;SDS011;19030;49.478;8.986;2023-04-24T01:07:32;3.05;;;1.73;;
32611;SDS011;19030;49.478;8.986;2023-04-24T01:09:35;4.15;;;2.08;;
32611;SDS011;19030;49.478;8.986;2023-04-24T01:11:38;3.75;;;2.03;;
32611;SDS011;19030;49.478;8.986;2023-04-24T01:13:39;5.28;;;1.80;;
32611;SDS011;19030;49.478;8.986;2023-04-24T01:15:40;3.90;;;1.88;;
32611;SDS011;19030;49.478;8.986;2023-04-24T01:17:41;4.72;;;1.80;;
32611;SDS011;19030;49.478;8.986;2023-04-24T01:19:42;5.10;;;2.20;;
32611;SDS011;19030;49.478;8.986;2023-04-24T01:21:44;3.55;;;1.92;;
32611;SDS011;19030;49.478;8.986;2023-04-24T01:23:49;3.00;;;1.83;;
32611;SDS011;19030;49.478;8.986;2023-04-24T01:25:52;6.50;;;1.90;;
32611;SDS011;19030;49.478;8.986;2023-04-24T01:27:52;3.53;;;1.70;;
32611;SDS011;19030;49.478;8.986;2023-04-24T01:29:53;7.07;;;1.90;;
32611;SDS011;19030;49.478;8.986;2023-04-24T01:31:54;4.30;;;2.03;;
32611;SDS011;19030;49.478;8.986;2023-04-24T01:33:55;3.45;;;1.90;;
32611;SDS011;19030;49.478;8.986;2023-04-24T01:35:56;3.00;;;2.00;;
32611;SDS011;19030;49.478;8.986;2023-04-24T01:37:57;4.30;;;2.15;;
32611;SDS011;19030;49.478;8.986;2023-04-24T01:39:58;3.40;;;2.20;;
32611;SDS011;19030;49.478;8.986;2023-04-24T01:42:00;9.40;;;2.30;;
32611;SDS011;19030;49.478;8.986;2023-04-24T01:44:02;2.70;;;1.60;;
32611;SDS011;19030;49.478;8.986;2023-04-24T01:46:02;7.45;;;2.00;;
32611;SDS011;19030;49.478;8.986;2023-04-24T01:48:03;3.03;;;1.80;;
32611;SDS011;19030;49.478;8.986;2023-04-24T01:50:04;3.95;;;2.00;;
32611;SDS011;19030;49.478;8.986;2023-04-24T01:52:06;3.15;;;1.95;;
32611;SDS011;19030;49.478;8.986;2023-04-24T01:54:06;4.70;;;1.95;;
32611;SDS011;19030;49.478;8.986;2023-04-24T01:56:07;3.05;;;1.80;;
32611;SDS011;19030;49.478;8.986;2023-04-24T01:58:07;3.78;;;1.80;;
32611;SDS011;19030;49.478;8.986;2023-04-24T02:00:09;2.95;;;1.55;;
32611;SDS011;19030;49.478;8.986;2023-04-24T02:02:14;2.95;;;1.73;;
32611;SDS011;19030;49.478;8.986;2023-04-24T02:04:14;2.95;;;1.60;;
32611;SDS011;19030;49.478;8.986;2023-04-24T02:06:15;3.50;;;1.80;;
32611;SDS011;19030;49.478;8.986;2023-04-24T02:08:16;5.10;;;2.00;;
32611;SDS011;19030;49.478;8.986;2023-04-24T02:10:16;4.78;;;1.77;;
32611;SDS011;19030;49.478;8.986;2023-04-24T02:12:17;4.57;;;1.90;;
32611;SDS011;19030;49.478;8.986;2023-04-24T02:14:18;7.18;;;1.95;;
32611;SDS011;19030;49.478;8.986;2023-04-24T02:16:18;5.63;;;1.95;;
32611;SDS011;19030;49.478;8.986;2023-04-24T02:18:19;2.95;;;1.70;;
32611;SDS011;19030;49.478;8.986;2023-04-24T02:20:19;4.47;;;1.77;;
32611;SDS011;19030;49.478;8.986;2023-04-24T02:22:20;4.78;;;1.92;;
32611;SDS011;19030;49.478;8.986;2023-04-24T02:24:21;2.58;;;1.70;;
32611;SDS011;19030;49.478;8.986;2023-04-24T02:26:21;3.60;;;1.60;;
32611;SDS011;19030;49.478;8.986;2023-04-24T02:28:22;5.45;;;1.73;;
32611;SDS011;19030;49.478;8.986;2023-04-24T02:30:24;4.10;;;1.85;;
32611;SDS011;19030;49.478;8.986;2023-04-24T02:32:25;4.53;;;1.92;;
32611;SDS011;19030;49.478;8.986;2023-04-24T02:34:25;5.93;;;2.35;;
32611;SDS011;19030;49.478;8.986;2023-04-24T02:36:26;3.17;;;1.75;;
32611;SDS011;19030;49.478;8.986;2023-04-24T02:38:26;8.02;;;1.98;;
32611;SDS011;19030;49.478;8.986;2023-04-24T02:40:27;2.85;;;1.80;;
32611;SDS011;19030;49.478;8.986;2023-04-24T02:42:27;2.72;;;1.95;;
32611;SDS011;19030;49.478;8.986;2023-04-24T02:44:28;5.63;;;2.03;;
32611;SDS011;19030;49.478;8.986;2023-04-24T02:46:28;2.88;;;1.75;;
32611;SDS011;19030;49.478;8.986;2023-04-24T02:48:29;3.83;;;1.80;;
32611;SDS011;19030;49.478;8.986;2023-04-24T02:50:30;5.97;;;1.98;;
32611;SDS011;19030;49.478;8.986;2023-04-24T02:52:31;5.03;;;1.80;;
32611;SDS011;19030;49.478;8.986;2023-04-24T02:54:32;3.58;;;1.85;;
32611;SDS011;19030;49.478;8.986;2023-04-24T02:56:32;9.00;;;2.13;;
32611;SDS011;19030;49.478;8.986;2023-04-24T02:58:34;6.10;;;1.75;;
32611;SDS011;19030;49.478;8.986;2023-04-24T03:00:35;7.28;;;2.03;;
32611;SDS011;19030;49.478;8.986;2023-04-24T03:02:36;7.40;;;2.00;;
32611;SDS011;19030;49.478;8.986;2023-04-24T03:04:36;6.85;;;1.58;;
32611;SDS011;19030;49.478;8.986;2023-04-24T03:06:37;5.95;;;1.75;;
32611;SDS011;19030;49.478;8.986;2023-04-24T03:08:37;5.10;;;1.65;;
32611;SDS011;19030;49.478;8.986;2023-04-24T03:10:38;3.97;;;1.58;;
32611;SDS011;19030;49.478;8.986;2023-04-24T03:12:38;5.40;;;2.00;;
32611;SDS011;19030;49.478;8.986;2023-04-24T03:14:39;6.57;;;2.40;;
32611;SDS011;19030;49.478;8.986;2023-04-24T03:16:39;5.63;;;1.98;;
32611;SDS011;19030;49.478;8.986;2023-04-24T03:18:40;6.97;;;2.58;;
32611;SDS011;19030;49.478;8.986;2023-04-24T03:20:42;5.07;;;1.80;;
32611;SDS011;19030;49.478;8.986;2023-04-24T03:22:47;2.63;;;1.60;;
32611;SDS011;19030;49.478;8.986;2023-04-24T03:24:47;6.25;;;1.70;;
32611;SDS011;19030;49.478;8.986;2023-04-24T03:26:50;3.38;;;1.52;;
32611;SDS011;19030;49.478;8.986;2023-04-24T03:29:21;3.90;;;1.80;;
32611;SDS011;19030;49.478;8.986;2023-04-24T03:31:22;3.83;;;1.92;;
32611;SDS011;19030;49.478;8.986;2023-04-24T03:33:23;4.88;;;1.70;;
32611;SDS011;19030;49.478;8.986;2023-04-24T03:35:35;4.18;;;2.13;;
32611;SDS011;19030;49.478;8.986;2023-04-24T03:37:38;7.32;;;2.00;;
32611;SDS011;19030;49.478;8.986;2023-04-24T03:39:59;4.32;;;2.00;;
32611;SDS011;19030;49.478;8.986;2023-04-24T03:42:01;6.28;;;1.90;;
32611;SDS011;19030;49.478;8.986;2023-04-24T03:44:13;7.32;;;1.95;;
32611;SDS011;19030;49.478;8.986;2023-04-24T03:46:15;4.05;;;2.10;;
32611;SDS011;19030;49.478;8.986;2023-04-24T03:48:21;5.35;;;2.10;;
32611;SDS011;19030;49.478;8.986;2023-04-24T03:50:22;5.32;;;2.10;;
32611;SDS011;19030;49.478;8.986;2023-04-24T03:52:23;6.40;;;2.38;;
32611;SDS011;19030;49.478;8.986;2023-04-24T03:54:25;8.90;;;3.58;;
32611;SDS011;19030;49.478;8.986;2023-04-24T03:56:27;7.05;;;3.15;;
32611;SDS011;19030;49.478;8.986;2023-04-24T03:58:28;6.88;;;2.60;;
32611;SDS011;19030;49.478;8.986;2023-04-24T04:00:29;5.57;;;3.22;;
32611;SDS011;19030;49.478;8.986;2023-04-24T04:02:51;6.63;;;3.30;;
32611;SDS011;19030;49.478;8.986;2023-04-24T04:04:52;4.95;;;2.95;;
32611;SDS011;19030;49.478;8.986;2023-04-24T04:06:53;4.93;;;2.90;;
32611;SDS011;19030;49.478;8.986;2023-04-24T04:08:54;6.20;;;2.90;;
32611;SDS011;19030;49.478;8.986;2023-04-24T04:10:55;6.55;;;2.70;;
32611;SDS011;19030;49.478;8.986;2023-04-24T04:12:57;4.03;;;2.35;;
32611;SDS011;19030;49.478;8.986;2023-04-24T04:14:57;6.13;;;3.08;;
32611;SDS011;19030;49.478;8.986;2023-04-24T04:16:58;5.30;;;2.92;;
32611;SDS011;19030;49.478;8.986;2023-04-24T04:19:00;6.53;;;2.80;;
32611;SDS011;19030;49.478;8.986;2023-04-24T04:21:00;5.68;;;2.78;;
32611;SDS011;19030;49.478;8.986;2023-04-24T04:23:02;9.23;;;3.20;;
32611;SDS011;19030;49.478;8.986;2023-04-24T04:25:14;6.43;;;3.35;;
32611;SDS011;19030;49.478;8.986;2023-04-24T04:27:16;5.15;;;3.25;;
32611;SDS011;19030;49.478;8.986;2023-04-24T04:29:28;12.38;;;7.80;;
32611;SDS011;19030;49.478;8.986;2023-04-24T04:31:29;23.55;;;13.45;;
32611;SDS011;19030;49.478;8.986;2023-04-24T04:33:33;9.98;;;4.03;;
32611;SDS011;19030;49.478;8.986;2023-04-24T04:35:36;10.15;;;3.45;;
32611;SDS011;19030;49.478;8.986;2023-04-24T04:37:36;6.63;;;3.10;;
32611;SDS011;19030;49.478;8.986;2023-04-24T04:39:49;7.95;;;2.83;;
32611;SDS011;19030;49.478;8.986;2023-04-24T04:41:54;9.80;;;3.20;;
32611;SDS011;19030;49.478;8.986;2023-04-24T04:43:57;5.35;;;3.10;;
32611;SDS011;19030;49.478;8.986;2023-04-24T04:45:59;5.97;;;3.08;;
32611;SDS011;19030;49.478;8.986;2023-04-24T04:48:13;6.25;;;3.15;;
32611;SDS011;19030;49.478;8.986;2023-04-24T04:50:15;5.75;;;3.00;;
32611;SDS011;19030;49.478;8.986;2023-04-24T04:52:17;7.43;;;3.15;;
32611;SDS011;19030;49.478;8.986;2023-04-24T04:54:20;5.80;;;3.38;;
32611;SDS011;19030;49.478;8.986;2023-04-24T04:56:21;7.38;;;3.13;;
32611;SDS011;19030;49.478;8.986;2023-04-24T04:58:23;4.72;;;2.78;;
32611;SDS011;19030;49.478;8.986;2023-04-24T05:00:28;6.78;;;2.83;;
32611;SDS011;19030;49.478;8.986;2023-04-24T05:02:34;6.70;;;2.88;;
32611;SDS011;19030;49.478;8.986;2023-04-24T05:04:34;3.85;;;2.53;;
32611;SDS011;19030;49.478;8.986;2023-04-24T05:06:35;5.90;;;2.75;;
32611;SDS011;19030;49.478;8.986;2023-04-24T05:08:36;10.95;;;4.63;;
32611;SDS011;19030;49.478;8.986;2023-04-24T05:10:38;4.13;;;2.60;;
32611;SDS011;19030;49.478;8.986;2023-04-24T05:12:39;5.57;;;2.92;;
32611;SDS011;19030;49.478;8.986;2023-04-24T05:14:41;5.47;;;2.95;;
32611;SDS011;19030;49.478;8.986;2023-04-24T05:16:42;5.03;;;2.83;;
32611;SDS011;19030;49.478;8.986;2023-04-24T05:18:44;7.18;;;2.88;;
32611;SDS011;19030;49.478;8.986;2023-04-24T05:20:48;7.53;;;2.88;;
32611;SDS011;19030;49.478;8.986;2023-04-24T05:22:49;7.00;;;2.95;;
32611;SDS011;19030;49.478;8.986;2023-04-24T05:24:51;5.70;;;2.97;;
32611;SDS011;19030;49.478;8.986;2023-04-24T05:27:06;7.50;;;3.20;;
32611;SDS011;19030;49.478;8.986;2023-04-24T05:29:12;4.85;;;2.75;;
32611;SDS011;19030;49.478;8.986;2023-04-24T05:31:12;8.52;;;3.10;;
32611;SDS011;19030;49.478;8.986;2023-04-24T05:33:13;7.35;;;3.00;;
32611;SDS011;19030;49.478;8.986;2023-04-24T05:35:14;6.20;;;3.00;;
32611;SDS011;19030;49.478;8.986;2023-04-24T05:37:14;5.80;;;3.10;;
32611;SDS011;19030;49.478;8.986;2023-04-24T05:39:15;8.85;;;3.85;;
32611;SDS011;19030;49.478;8.986;2023-04-24T05:41:16;6.72;;;3.60;;
32611;SDS011;19030;49.478;8.986;2023-04-24T05:43:17;6.45;;;3.72;;
32611;SDS011;19030;49.478;8.986;2023-04-24T05:45:18;7.18;;;3.85;;
32611;SDS011;19030;49.478;8.986;2023-04-24T05:47:19;9.77;;;3.88;;
32611;SDS011;19030;49.478;8.986;2023-04-24T05:49:24;9.07;;;4.72;;
32611;SDS011;19030;49.478;8.986;2023-04-24T05:51:25;7.60;;;3.50;;
32611;SDS011;19030;49.478;8.986;2023-04-24T05:53:25;6.78;;;3.50;;
32611;SDS011;19030;49.478;8.986;2023-04-24T05:55:27;6.53;;;3.55;;
32611;SDS011;19030;49.478;8.986;2023-04-24T05:57:28;6.63;;;3.33;;
32611;SDS011;19030;49.478;8.986;2023-04-24T05:59:35;6.68;;;3.45;;
32611;SDS011;19030;49.478;8.986;2023-04-24T06:01:38;6.13;;;3.65;;
32611;SDS011;19030;49.478;8.986;2023-04-24T06:05:45;5.85;;;3.08;;
32611;SDS011;19030;49.478;8.986;2023-04-24T06:07:47;5.75;;;3.33;;
32611;SDS011;19030;49.478;8.986;2023-04-24T06:09:48;8.00;;;3.92;;
32611;SDS011;19030;49.478;8.986;2023-04-24T06:11:50;5.22;;;3.10;;
32611;SDS011;19030;49.478;8.986;2023-04-24T06:13:55;6.72;;;3.35;;
32611;SDS011;19030;49.478;8.986;2023-04-24T06:16:18;7.22;;;3.40;;
32611;SDS011;19030;49.478;8.986;2023-04-24T06:18:26;6.90;;;3.50;;
32611;SDS011;19030;49.478;8.986;2023-04-24T06:20:27;6.95;;;3.45;;
32611;SDS011;19030;49.478;8.986;2023-04-24T06:22:27;7.78;;;3.30;;
32611;SDS011;19030;49.478;8.986;2023-04-24T06:24:28;7.55;;;3.65;;
32611;SDS011;19030;49.478;8.986;2023-04-24T06:26:29;8.93;;;4.05;;
32611;SDS011;19030;49.478;8.986;2023-04-24T06:28:30;8.15;;;3.80;;
32611;SDS011;19030;49.478;8.986;2023-04-24T06:30:30;8.82;;;4.00;;
32611;SDS011;19030;49.478;8.986;2023-04-24T06:32:31;7.90;;;3.65;;
32611;SDS011;19030;49.478;8.986;2023-04-24T06:34:33;9.90;;;3.70;;
32611;SDS011;19030;49.478;8.986;2023-04-24T06:36:35;7.82;;;3.65;;
32611;SDS011;19030;49.478;8.986;2023-04-24T06:38:36;8.02;;;3.63;;
32611;SDS011;19030;49.478;8.986;2023-04-24T06:40:36;6.80;;;3.60;;
32611;SDS011;19030;49.478;8.986;2023-04-24T06:42:37;6.88;;;4.10;;
32611;SDS011;19030;49.478;8.986;2023-04-24T06:44:38;7.13;;;3.70;;
32611;SDS011;19030;49.478;8.986;2023-04-24T06:46:41;9.23;;;4.03;;
32611;SDS011;19030;49.478;8.986;2023-04-24T06:48:41;9.48;;;3.80;;
32611;SDS011;19030;49.478;8.986;2023-04-24T06:50:42;6.38;;;3.70;;
32611;SDS011;19030;49.478;8.986;2023-04-24T06:52:42;7.35;;;3.67;;
32611;SDS011;19030;49.478;8.986;2023-04-24T06:54:44;8.25;;;4.15;;
32611;SDS011;19030;49.478;8.986;2023-04-24T06:56:44;7.13;;;3.75;;
32611;SDS011;19030;49.478;8.986;2023-04-24T06:58:47;8.32;;;3.95;;
32611;SDS011;19030;49.478;8.986;2023-04-24T07:00:48;7.28;;;3.90;;
32611;SDS011;19030;49.478;8.986;2023-04-24T07:02:48;6.07;;;3.60;;
32611;SDS011;19030;49.478;8.986;2023-04-24T07:04:49;6.72;;;3.42;;
32611;SDS011;19030;49.478;8.986;2023-04-24T07:06:50;6.30;;;3.83;;
32611;SDS011;19030;49.478;8.986;2023-04-24T07:08:51;8.25;;;4.00;;
32611;SDS011;19030;49.478;8.986;2023-04-24T07:10:51;7.20;;;3.47;;
32611;SDS011;19030;49.478;8.986;2023-04-24T07:12:52;7.30;;;3.75;;
32611;SDS011;19030;49.478;8.986;2023-04-24T07:14:52;7.93;;;4.25;;
32611;SDS011;19030;49.478;8.986;2023-04-24T07:16:53;8.35;;;3.83;;
32611;SDS011;19030;49.478;8.986;2023-04-24T07:18:53;6.60;;;3.45;;
32611;SDS011;19030;49.478;8.986;2023-04-24T07:20:54;6.00;;;3.55;;
32611;SDS011;19030;49.478;8.986;2023-04-24T07:22:55;7.20;;;3.63;;
32611;SDS011;19030;49.478;8.986;2023-04-24T07:24:55;8.77;;;3.88;;
32611;SDS011;19030;49.478;8.986;2023-04-24T07:26:56;5.68;;;3.38;;
32611;SDS011;19030;49.478;8.986;2023-04-24T07:28:57;6.65;;;3.75;;
32611;SDS011;19030;49.478;8.986;2023-04-24T07:30:57;6.28;;;3.17;;
32611;SDS011;19030;49.478;8.986;2023-04-24T07:32:59;6.43;;;3.42;;
32611;SDS011;19030;49.478;8.986;2023-04-24T07:35:00;8.25;;;3.60;;
32611;SDS011;19030;49.478;8.986;2023-04-24T07:37:00;8.60;;;3.83;;
32611;SDS011;19030;49.478;8.986;2023-04-24T07:39:02;6.15;;;3.50;;
32611;SDS011;19030;49.478;8.986;2023-04-24T07:41:02;9.55;;;3.70;;
32611;SDS011;19030;49.478;8.986;2023-04-24T07:43:03;7.30;;;2.90;;
32611;SDS011;19030;49.478;8.986;2023-04-24T07:45:03;6.85;;;3.00;;
32611;SDS011;19030;49.478;8.986;2023-04-24T07:47:04;5.15;;;3.05;;
32611;SDS011;19030;49.478;8.986;2023-04-24T07:49:05;6.00;;;2.78;;
32611;SDS011;19030;49.478;8.986;2023-04-24T07:51:06;4.25;;;2.70;;
32611;SDS011;19030;49.478;8.986;2023-04-24T07:53:06;3.55;;;2.47;;
32611;SDS011;19030;49.478;8.986;2023-04-24T07:55:07;3.92;;;2.35;;
32611;SDS011;19030;49.478;8.986;2023-04-24T07:57:08;7.70;;;2.70;;
32611;SDS011;19030;49.478;8.986;2023-04-24T07:59:09;6.03;;;2.50;;
32611;SDS011;19030;49.478;8.986;2023-04-24T08:01:10;3.55;;;2.20;;
32611;SDS011;19030;49.478;8.986;2023-04-24T08:03:11;3.00;;;2.20;;
32611;SDS011;19030;49.478;8.986;2023-04-24T08:05:12;3.60;;;2.10;;
32611;SDS011;19030;49.478;8.986;2023-04-24T08:07:13;3.53;;;2.58;;
32611;SDS011;19030;49.478;8.986;2023-04-24T08:09:14;4.68;;;2.60;;
32611;SDS011;19030;49.478;8.986;2023-04-24T08:11:14;5.45;;;2.60;;
32611;SDS011;19030;49.478;8.986;2023-04-24T08:13:15;6.60;;;2.30;;
32611;SDS011;19030;49.478;8.986;2023-04-24T08:15:15;4.07;;;2.22;;
32611;SDS011;19030;49.478;8.986;2023-04-24T08:17:16;4.95;;;2.42;;
32611;SDS011;19030;49.478;8.986;2023-04-24T08:19:17;6.15;;;2.75;;
32611;SDS011;19030;49.478;8.986;2023-04-24T08:21:18;5.05;;;2.30;;
32611;SDS011;19030;49.478;8.986;2023-04-24T08:23:20;3.85;;;2.38;;
32611;SDS011;19030;49.478;8.986;2023-04-24T08:25:22;3.88;;;2.40;;
32611;SDS011;19030;49.478;8.986;2023-04-24T08:27:24;3.78;;;2.28;;
32611;SDS011;19030;49.478;8.986;2023-04-24T08:29:26;4.93;;;2.60;;
32611;SDS011;19030;49.478;8.986;2023-04-24T08:31:27;5.70;;;2.75;;
32611;SDS011;19030;49.478;8.986;2023-04-24T08:33:27;4.07;;;2.58;;
32611;SDS011;19030;49.478;8.986;2023-04-24T08:35:34;6.32;;;3.20;;
32611;SDS011;19030;49.478;8.986;2023-04-24T08:37:35;7.28;;;3.17;;
32611;SDS011;19030;49.478;8.986;2023-04-24T08:39:36;6.25;;;2.80;;
32611;SDS011;19030;49.478;8.986;2023-04-24T08:41:37;4.25;;;2.30;;
32611;SDS011;19030;49.478;8.986;2023-04-24T08:43:38;4.55;;;2.70;;
32611;SDS011;19030;49.478;8.986;2023-04-24T08:45:39;3.70;;;2.40;;
32611;SDS011;19030;49.478;8.986;2023-04-24T08:47:40;5.85;;;3.13;;
32611;SDS011;19030;49.478;8.986;2023-04-24T08:49:42;5.72;;;2.85;;
32611;SDS011;19030;49.478;8.986;2023-04-24T08:51:43;8.13;;;3.20;;
32611;SDS011;19030;49.478;8.986;2023-04-24T08:53:45;4.80;;;2.40;;
32611;SDS011;19030;49.478;8.986;2023-04-24T08:55:46;5.05;;;2.97;;
32611;SDS011;19030;49.478;8.986;2023-04-24T08:57:50;4.72;;;3.42;;
32611;SDS011;19030;49.478;8.986;2023-04-24T08:59:52;4.85;;;3.10;;
32611;SDS011;19030;49.478;8.986;2023-04-24T09:01:54;5.35;;;2.80;;
32611;SDS011;19030;49.478;8.986;2023-04-24T09:03:55;4.53;;;2.70;;
32611;SDS011;19030;49.478;8.986;2023-04-24T09:05:57;5.43;;;2.80;;
32611;SDS011;19030;49.478;8.986;2023-04-24T09:08:00;5.53;;;2.58;;
32611;SDS011;19030;49.478;8.986;2023-04-24T09:10:02;5.43;;;2.97;;
32611;SDS011;19030;49.478;8.986;2023-04-24T09:12:03;4.07;;;2.75;;
32611;SDS011;19030;49.478;8.986;2023-04-24T09:14:04;5.30;;;2.90;;
32611;SDS011;19030;49.478;8.986;2023-04-24T09:16:04;6.55;;;3.15;;
32611;SDS011;19030;49.478;8.986;2023-04-24T09:18:05;5.68;;;3.30;;
32611;SDS011;19030;49.478;8.986;2023-04-24T09:20:06;5.57;;;3.20;;
32611;SDS011;19030;49.478;8.986;2023-04-24T09:22:07;4.88;;;2.75;;
32611;SDS011;19030;49.478;8.986;2023-04-24T09:24:14;4.93;;;2.80;;
32611;SDS011;19030;49.478;8.986;2023-04-24T09:26:20;4.50;;;2.65;;
32611;SDS011;19030;49.478;8.986;2023-04-24T09:28:26;4.53;;;2.40;;
32611;SDS011;19030;49.478;8.986;2023-04-24T09:30:32;4.25;;;2.63;;
32611;SDS011;19030;49.478;8.986;2023-04-24T09:32:32;4.38;;;2.67;;
32611;SDS011;19030;49.478;8.986;2023-04-24T09:34:33;5.97;;;2.67;;
32611;SDS011;19030;49.478;8.986;2023-04-24T09:36:37;5.95;;;2.90;;
32611;SDS011;19030;49.478;8.986;2023-04-24T09:38:39;6.30;;;2.97;;
32611;SDS011;19030;49.478;8.986;2023-04-24T09:40:40;6.28;;;2.83;;
32611;SDS011;19030;49.478;8.986;2023-04-24T09:42:45;5.38;;;2.80;;
32611;SDS011;19030;49.478;8.986;2023-04-24T09:44:52;4.70;;;2.67;;
32611;SDS011;19030;49.478;8.986;2023-04-24T09:46:54;4.55;;;2.67;;
32611;SDS011;19030;49.478;8.986;2023-04-24T09:48:56;5.40;;;2.70;;
32611;SDS011;19030;49.478;8.986;2023-04-24T09:50:56;6.72;;;2.53;;
32611;SDS011;19030;49.478;8.986;2023-04-24T09:52:58;4.95;;;3.00;;
32611;SDS011;19030;49.478;8.986;2023-04-24T09:55:01;8.10;;;3.28;;
32611;SDS011;19030;49.478;8.986;2023-04-24T09:57:02;5.03;;;3.00;;
32611;SDS011;19030;49.478;8.986;2023-04-24T09:59:06;4.72;;;2.78;;
32611;SDS011;19030;49.478;8.986;2023-04-24T10:01:07;5.35;;;2.70;;
32611;SDS011;19030;49.478;8.986;2023-04-24T10:03:07;7.32;;;2.90;;
32611;SDS011;19030;49.478;8.986;2023-04-24T10:05:08;6.45;;;2.85;;
32611;SDS011;19030;49.478;8.986;2023-04-24T10:07:11;4.00;;;2.50;;
32611;SDS011;19030;49.478;8.986;2023-04-24T10:09:12;3.47;;;2.20;;
32611;SDS011;19030;49.478;8.986;2023-04-24T10:11:13;6.07;;;3.25;;
32611;SDS011;19030;49.478;8.986;2023-04-24T10:13:15;5.00;;;2.72;;
32611;SDS011;19030;49.478;8.986;2023-04-24T10:15:15;4.32;;;2.85;;
32611;SDS011;19030;49.478;8.986;2023-04-24T10:17:20;4.10;;;2.63;;
32611;SDS011;19030;49.478;8.986;2023-04-24T10:19:21;5.40;;;2.58;;
32611;SDS011;19030;49.478;8.986;2023-04-24T10:21:25;3.38;;;2.40;;
32611;SDS011;19030;49.478;8.986;2023-04-24T10:23:26;4.97;;;2.55;;
32611;SDS011;19030;49.478;8.986;2023-04-24T10:25:29;4.20;;;2.40;;
32611;SDS011;19030;49.478;8.986;2023-04-24T10:27:31;5.40;;;3.05;;
32611;SDS011;19030;49.478;8.986;2023-04-24T10:29:32;6.53;;;2.78;;
32611;SDS011;19030;49.478;8.986;2023-04-24T10:31:36;5.00;;;2.92;;
32611;SDS011;19030;49.478;8.986;2023-04-24T10:33:36;10.13;;;3.10;;
32611;SDS011;19030;49.478;8.986;2023-04-24T10:35:42;6.63;;;2.83;;
32611;SDS011;19030;49.478;8.986;2023-04-24T10:37:46;5.10;;;3.08;;
32611;SDS011;19030;49.478;8.986;2023-04-24T10:39:50;8.63;;;2.80;;
32611;SDS011;19030;49.478;8.986;2023-04-24T10:41:54;6.07;;;3.10;;
32611;SDS011;19030;49.478;8.986;2023-04-24T10:44:11;7.40;;;3.47;;
32611;SDS011;19030;49.478;8.986;2023-04-24T10:46:16;6.95;;;3.45;;
32611;SDS011;19030;49.478;8.986;2023-04-24T10:48:20;6.03;;;3.10;;
32611;SDS011;19030;49.478;8.986;2023-04-24T10:50:27;6.43;;;3.30;;
32611;SDS011;19030;49.478;8.986;2023-04-24T10:52:43;6.72;;;2.92;;
32611;SDS011;19030;49.478;8.986;2023-04-24T10:54:48;6.20;;;3.25;;
32611;SDS011;19030;49.478;8.986;2023-04-24T10:56:52;5.35;;;2.88;;
32611;SDS011;19030;49.478;8.986;2023-04-24T10:58:53;5.63;;;2.95;;
32611;SDS011;19030;49.478;8.986;2023-04-24T11:00:58;4.60;;;2.80;;
32611;SDS011;19030;49.478;8.986;2023-04-24T11:03:00;5.57;;;3.38;;
32611;SDS011;19030;49.478;8.986;2023-04-24T11:05:02;7.05;;;3.33;;
32611;SDS011;19030;49.478;8.986;2023-04-24T11:07:03;6.15;;;3.58;;
32611;SDS011;19030;49.478;8.986;2023-04-24T11:09:05;6.35;;;3.22;;
32611;SDS011;19030;49.478;8.986;2023-04-24T11:11:12;6.18;;;3.55;;
32611;SDS011;19030;49.478;8.986;2023-04-24T11:13:14;6.25;;;3.30;;
32611;SDS011;19030;49.478;8.986;2023-04-24T11:15:21;5.18;;;3.17;;
32611;SDS011;19030;49.478;8.986;2023-04-24T11:17:37;6.22;;;3.22;;
32611;SDS011;19030;49.478;8.986;2023-04-24T11:19:39;5.50;;;2.70;;
32611;SDS011;19030;49.478;8.986;2023-04-24T11:21:56;4.88;;;3.08;;
32611;SDS011;19030;49.478;8.986;2023-04-24T11:24:21;4.38;;;3.00;;
32611;SDS011;19030;49.478;8.986;2023-04-24T11:26:31;5.72;;;2.90;;
32611;SDS011;19030;49.478;8.986;2023-04-24T11:28:43;4.43;;;2.65;;
32611;SDS011;19030;49.478;8.986;2023-04-24T11:30:45;4.30;;;3.00;;
32611;SDS011;19030;49.478;8.986;2023-04-24T11:32:50;4.68;;;3.03;;
32611;SDS011;19030;49.478;8.986;2023-04-24T11:34:52;4.80;;;3.03;;
32611;SDS011;19030;49.478;8.986;2023-04-24T11:36:54;4.72;;;3.10;;
32611;SDS011;19030;49.478;8.986;2023-04-24T11:38:56;6.20;;;3.10;;
32611;SDS011;19030;49.478;8.986;2023-04-24T11:40:57;6.68;;;3.25;;
32611;SDS011;19030;49.478;8.986;2023-04-24T11:43:00;5.00;;;2.80;;
32611;SDS011;19030;49.478;8.986;2023-04-24T11:45:00;5.22;;;2.88;;
32611;SDS011;19030;49.478;8.986;2023-04-24T11:47:02;4.63;;;2.80;;
32611;SDS011;19030;49.478;8.986;2023-04-24T11:49:04;6.82;;;3.40;;
32611;SDS011;19030;49.478;8.986;2023-04-24T11:51:05;7.32;;;3.03;;
32611;SDS011;19030;49.478;8.986;2023-04-24T11:53:06;5.75;;;2.95;;
32611;SDS011;19030;49.478;8.986;2023-04-24T11:55:08;6.07;;;2.90;;
32611;SDS011;19030;49.478;8.986;2023-04-24T11:57:14;3.85;;;2.60;;
32611;SDS011;19030;49.478;8.986;2023-04-24T11:59:15;4.82;;;2.97;;
32611;SDS011;19030;49.478;8.986;2023-04-24T12:01:15;4.85;;;2.90;;
32611;SDS011;19030;49.478;8.986;2023-04-24T12:03:16;6.45;;;2.90;;
32611;SDS011;19030;49.478;8.986;2023-04-24T12:05:23;7.72;;;3.15;;
32611;SDS011;19030;49.478;8.986;2023-04-24T12:07:25;5.93;;;3.08;;
32611;SDS011;19030;49.478;8.986;2023-04-24T12:09:26;6.95;;;3.20;;
32611;SDS011;19030;49.478;8.986;2023-04-24T12:11:27;4.60;;;2.80;;
32611;SDS011;19030;49.478;8.986;2023-04-24T12:13:27;6.47;;;3.70;;
32611;SDS011;19030;49.478;8.986;2023-04-24T12:15:28;5.18;;;3.28;;
32611;SDS011;19030;49.478;8.986;2023-04-24T12:17:32;4.35;;;3.08;;
32611;SDS011;19030;49.478;8.986;2023-04-24T12:19:34;5.05;;;3.03;;